createdAt,value
2022-10-09T00:00:11.554Z,1011.01
2022-10-09T00:01:11.534Z,1011.08
2022-10-09T00:02:11.527Z,1011.08
2022-10-09T00:03:11.504Z,1011.02
2022-10-09T00:04:11.484Z,1011.00
2022-10-09T00:05:11.546Z,1011.06
2022-10-09T00:06:11.463Z,1011.05
2022-10-09T00:07:11.457Z,1011.07
2022-10-09T00:08:11.443Z,1011.09
2022-10-09T00:09:11.423Z,1011.09
2022-10-09T00:10:11.435Z,1011.05
2022-10-09T00:11:11.406Z,1011.10
2022-10-09T00:12:11.394Z,1011.12
2022-10-09T00:13:11.628Z,1011.11
2022-10-09T00:14:11.353Z,1011.13
2022-10-09T00:15:11.362Z,1011.09
2022-10-09T00:16:11.331Z,1011.12
2022-10-09T00:17:11.403Z,1011.09
2022-10-09T00:18:11.299Z,1011.11
2022-10-09T00:19:11.290Z,1011.07
2022-10-09T00:20:11.289Z,1011.04
2022-10-09T00:21:11.271Z,1011.11
2022-10-09T00:22:11.252Z,1011.08
2022-10-09T00:23:11.240Z,1011.12
2022-10-09T00:24:11.218Z,1011.11
2022-10-09T00:25:11.229Z,1011.14
2022-10-09T00:26:11.202Z,1011.13
2022-10-09T00:27:11.190Z,1011.18
2022-10-09T00:28:11.191Z,1011.15
2022-10-09T00:29:11.162Z,1011.18
2022-10-09T00:30:11.157Z,1011.12
2022-10-09T00:31:11.185Z,1011.12
2022-10-09T00:32:11.117Z,1011.15
2022-10-09T00:33:11.107Z,1011.10
2022-10-09T00:34:11.108Z,1011.17
2022-10-09T00:35:11.107Z,1011.19
2022-10-09T00:36:11.079Z,1011.14
2022-10-09T00:37:11.047Z,1011.17
2022-10-09T00:38:11.037Z,1011.14
2022-10-09T00:39:11.015Z,1011.17
2022-10-09T00:40:11.015Z,1011.16
2022-10-09T00:41:11.002Z,1011.15
2022-10-09T00:42:10.980Z,1011.13
2022-10-09T00:43:10.965Z,1011.16
2022-10-09T00:44:10.946Z,1011.14
2022-10-09T00:45:10.946Z,1011.15
2022-10-09T00:46:10.982Z,1011.14
2022-10-09T00:47:10.929Z,1011.18
2022-10-09T00:48:10.917Z,1011.19
2022-10-09T00:49:10.916Z,1011.16
2022-10-09T00:50:10.875Z,1011.14
2022-10-09T00:51:10.865Z,1011.17
2022-10-09T00:52:10.844Z,1011.19
2022-10-09T00:53:10.835Z,1011.16
2022-10-09T00:54:10.814Z,1011.16
2022-10-09T00:55:10.820Z,1011.12
2022-10-09T00:56:10.814Z,1011.10
2022-10-09T00:57:10.785Z,1011.10
2022-10-09T00:58:10.763Z,1011.15
2022-10-09T00:59:10.753Z,1011.10
2022-10-09T01:00:10.750Z,1011.15
2022-10-09T01:01:10.765Z,1011.14
2022-10-09T01:02:10.770Z,1011.16
2022-10-09T01:03:10.713Z,1011.17
2022-10-09T01:04:10.684Z,1011.17
2022-10-09T01:05:10.683Z,1011.14
2022-10-09T01:06:10.652Z,1011.12
2022-10-09T01:07:10.642Z,1011.13
2022-10-09T01:08:10.633Z,1011.15
2022-10-09T01:09:10.622Z,1011.11
2022-10-09T01:10:10.629Z,1011.18
2022-10-09T01:11:10.589Z,1011.22
2022-10-09T01:12:10.575Z,1011.24
2022-10-09T01:13:10.560Z,1011.26
2022-10-09T01:14:10.540Z,1011.21
2022-10-09T01:15:10.555Z,1011.20
2022-10-09T01:16:10.535Z,1011.20
2022-10-09T01:17:10.510Z,1011.21
2022-10-09T01:18:10.490Z,1011.15
2022-10-09T01:19:10.479Z,1011.19
2022-10-09T01:20:10.479Z,1011.18
2022-10-09T01:21:10.451Z,1011.21
2022-10-09T01:22:10.439Z,1011.18
2022-10-09T01:23:10.427Z,1011.17
2022-10-09T01:24:10.418Z,1011.17
2022-10-09T01:25:10.409Z,1011.15
2022-10-09T01:26:10.393Z,1011.18
2022-10-09T01:27:10.369Z,1011.20
2022-10-09T01:28:10.413Z,1011.19
2022-10-09T01:29:10.346Z,1011.20
2022-10-09T01:30:10.337Z,1011.16
2022-10-09T01:31:10.336Z,1011.18
2022-10-09T01:32:10.314Z,1011.20
2022-10-09T01:33:10.305Z,1011.19
2022-10-09T01:34:10.287Z,1011.22
2022-10-09T01:35:10.275Z,1011.20
2022-10-09T01:36:10.258Z,1011.16
2022-10-09T01:37:10.245Z,1011.21
2022-10-09T01:38:10.238Z,1011.19
2022-10-09T01:39:10.206Z,1011.22
2022-10-09T01:40:10.215Z,1011.21
2022-10-09T01:41:10.185Z,1011.21
2022-10-09T01:42:10.183Z,1011.20
2022-10-09T01:43:10.154Z,1011.24
2022-10-09T01:44:10.145Z,1011.24
2022-10-09T01:45:10.135Z,1011.24
2022-10-09T01:46:10.163Z,1011.27
2022-10-09T01:47:10.105Z,1011.26
2022-10-09T01:48:10.102Z,1011.31
2022-10-09T01:49:10.083Z,1011.31
2022-10-09T01:50:10.078Z,1011.30
2022-10-09T01:51:10.044Z,1011.28
2022-10-09T01:52:10.037Z,1011.31
2022-10-09T01:53:10.014Z,1011.29
2022-10-09T01:54:10.011Z,1011.32
2022-10-09T01:55:10.002Z,1011.32
2022-10-09T01:56:09.990Z,1011.35
2022-10-09T01:57:09.981Z,1011.36
2022-10-09T01:58:09.953Z,1011.43
2022-10-09T01:59:14.832Z,1011.36
2022-10-09T02:00:10.932Z,1011.39
2022-10-09T02:01:09.980Z,1011.44
2022-10-09T02:02:10.036Z,1011.42
2022-10-09T02:03:09.891Z,1011.42
2022-10-09T02:04:09.880Z,1011.46
2022-10-09T02:05:09.862Z,1011.48
2022-10-09T02:06:09.854Z,1011.47
2022-10-09T02:07:09.837Z,1011.46
2022-10-09T02:08:09.820Z,1011.46
2022-10-09T02:09:09.814Z,1011.40
2022-10-09T02:10:09.808Z,1011.49
2022-10-09T02:11:09.780Z,1011.46
2022-10-09T02:12:09.774Z,1011.46
2022-10-09T02:13:09.751Z,1011.45
2022-10-09T02:14:09.749Z,1011.48
2022-10-09T02:15:09.736Z,1011.46
2022-10-09T02:16:09.782Z,1011.47
2022-10-09T02:17:09.714Z,1011.45
2022-10-09T02:18:09.699Z,1011.49
2022-10-09T02:19:09.681Z,1011.48
2022-10-09T02:20:09.677Z,1011.48
2022-10-09T02:21:09.659Z,1011.49
2022-10-09T02:22:09.638Z,1011.52
2022-10-09T02:23:09.630Z,1011.46
2022-10-09T02:24:09.617Z,1011.46
2022-10-09T02:25:09.609Z,1011.49
2022-10-09T02:26:09.600Z,1011.49
2022-10-09T02:27:09.568Z,1011.48
2022-10-09T02:28:09.631Z,1011.47
2022-10-09T02:29:09.548Z,1011.47
2022-10-09T02:30:09.565Z,1011.46
2022-10-09T02:31:09.566Z,1011.48
2022-10-09T02:32:09.520Z,1011.51
2022-10-09T02:33:09.515Z,1011.51
2022-10-09T02:34:09.486Z,1011.52
2022-10-09T02:35:09.519Z,1011.51
2022-10-09T02:36:09.483Z,1011.56
2022-10-09T02:37:09.446Z,1011.51
2022-10-09T02:38:09.434Z,1011.62
2022-10-09T02:39:09.418Z,1011.55
2022-10-09T02:40:10.912Z,1011.47
2022-10-09T02:41:09.394Z,1011.60
2022-10-09T02:42:09.385Z,1011.61
2022-10-09T02:43:09.372Z,1011.51
2022-10-09T02:44:09.362Z,1011.53
2022-10-09T02:45:09.391Z,1011.57
2022-10-09T02:46:09.370Z,1011.53
2022-10-09T02:47:09.314Z,1011.56
2022-10-09T02:48:09.302Z,1011.60
2022-10-09T02:49:09.293Z,1011.60
2022-10-09T02:50:09.293Z,1011.65
2022-10-09T02:51:09.272Z,1011.66
2022-10-09T02:52:09.257Z,1011.67
2022-10-09T02:53:09.253Z,1011.68
2022-10-09T02:54:09.232Z,1011.67
2022-10-09T02:55:09.226Z,1011.67
2022-10-09T02:56:09.206Z,1011.69
2022-10-09T02:57:09.190Z,1011.67
2022-10-09T02:58:09.190Z,1011.65
2022-10-09T02:59:09.160Z,1011.67
2022-10-09T03:00:09.174Z,1011.63
2022-10-09T03:01:09.143Z,1011.64
2022-10-09T03:02:09.250Z,1011.65
2022-10-09T03:03:09.217Z,1011.67
2022-10-09T03:04:09.105Z,1011.69
2022-10-09T03:05:09.111Z,1011.70
2022-10-09T03:06:09.121Z,1011.69
2022-10-09T03:07:09.061Z,1011.72
2022-10-09T03:08:09.104Z,1011.73
2022-10-09T03:09:09.030Z,1011.71
2022-10-09T03:10:09.040Z,1011.73
2022-10-09T03:11:09.009Z,1011.74
2022-10-09T03:12:09.000Z,1011.69
2022-10-09T03:13:08.998Z,1011.71
2022-10-09T03:14:08.994Z,1011.72
2022-10-09T03:15:09.003Z,1011.72
2022-10-09T03:16:09.008Z,1011.72
2022-10-09T03:17:08.930Z,1011.77
2022-10-09T03:18:08.925Z,1011.75
2022-10-09T03:19:08.897Z,1011.77
2022-10-09T03:20:08.906Z,1011.76
2022-10-09T03:21:08.880Z,1011.75
2022-10-09T03:22:08.866Z,1011.77
2022-10-09T03:23:08.849Z,1011.76
2022-10-09T03:24:08.844Z,1011.74
2022-10-09T03:25:08.837Z,1011.77
2022-10-09T03:26:08.816Z,1011.75
2022-10-09T03:27:08.803Z,1011.77
2022-10-09T03:28:08.833Z,1011.74
2022-10-09T03:29:08.774Z,1011.73
2022-10-09T03:30:08.774Z,1011.76
2022-10-09T03:31:08.804Z,1011.79
2022-10-09T03:32:08.797Z,1011.73
2022-10-09T03:33:08.725Z,1011.75
2022-10-09T03:34:08.714Z,1011.83
2022-10-09T03:35:08.704Z,1011.81
2022-10-09T03:36:08.683Z,1011.78
2022-10-09T03:37:08.668Z,1011.74
2022-10-09T03:38:08.655Z,1011.81
2022-10-09T03:39:08.644Z,1011.80
2022-10-09T03:40:08.645Z,1011.81
2022-10-09T03:41:08.622Z,1011.82
2022-10-09T03:42:08.610Z,1011.80
2022-10-09T03:43:08.591Z,1011.84
2022-10-09T03:44:08.588Z,1011.83
2022-10-09T03:45:08.588Z,1011.84
2022-10-09T03:46:08.599Z,1011.89
2022-10-09T03:47:08.540Z,1011.92
2022-10-09T03:48:08.532Z,1011.90
2022-10-09T03:49:08.521Z,1011.95
2022-10-09T03:50:08.520Z,1011.91
2022-10-09T03:51:08.489Z,1011.88
2022-10-09T03:52:08.501Z,1011.87
2022-10-09T03:53:08.460Z,1011.86
2022-10-09T03:54:08.483Z,1011.88
2022-10-09T03:55:08.443Z,1011.89
2022-10-09T03:56:08.427Z,1011.87
2022-10-09T03:57:08.412Z,1011.91
2022-10-09T03:58:08.425Z,1011.90
2022-10-09T03:59:08.408Z,1011.87
2022-10-09T04:00:08.371Z,1011.90
2022-10-09T04:01:08.471Z,1011.90
2022-10-09T04:02:08.409Z,1011.91
2022-10-09T04:03:08.339Z,1011.88
2022-10-09T04:04:08.328Z,1011.91
2022-10-09T04:05:08.310Z,1011.88
2022-10-09T04:06:08.299Z,1011.88
2022-10-09T04:07:08.289Z,1011.85
2022-10-09T04:08:08.277Z,1011.91
2022-10-09T04:09:08.320Z,1011.93
2022-10-09T04:10:08.248Z,1011.91
2022-10-09T04:11:08.227Z,1011.92
2022-10-09T04:12:08.228Z,1011.91
2022-10-09T04:13:08.210Z,1011.89
2022-10-09T04:14:08.213Z,1011.90
2022-10-09T04:15:08.175Z,1011.89
2022-10-09T04:16:08.236Z,1011.88
2022-10-09T04:17:08.160Z,1011.89
2022-10-09T04:18:08.148Z,1011.85
2022-10-09T04:19:08.136Z,1011.87
2022-10-09T04:20:08.127Z,1011.86
2022-10-09T04:21:08.104Z,1011.87
2022-10-09T04:22:08.096Z,1011.89
2022-10-09T04:23:08.086Z,1011.89
2022-10-09T04:24:08.075Z,1011.86
2022-10-09T04:25:08.054Z,1011.89
2022-10-09T04:26:08.044Z,1011.96
2022-10-09T04:27:08.023Z,1011.94
2022-10-09T04:28:08.062Z,1011.96
2022-10-09T04:29:08.017Z,1011.96
2022-10-09T04:30:08.002Z,1011.95
2022-10-09T04:31:08.031Z,1011.98
2022-10-09T04:32:07.968Z,1011.93
2022-10-09T04:33:12.593Z,1011.96
2022-10-09T04:34:08.963Z,1011.96
2022-10-09T04:35:07.926Z,1011.93
2022-10-09T04:36:07.911Z,1011.95
2022-10-09T04:37:07.894Z,1011.94
2022-10-09T04:38:07.895Z,1011.95
2022-10-09T04:39:07.882Z,1011.98
2022-10-09T04:40:07.861Z,1011.95
2022-10-09T04:41:07.841Z,1012.02
2022-10-09T04:42:07.839Z,1012.06
2022-10-09T04:43:07.820Z,1011.96
2022-10-09T04:44:07.822Z,1012.01
2022-10-09T04:45:07.794Z,1011.99
2022-10-09T04:46:07.837Z,1011.98
2022-10-09T04:47:11.118Z,1012.02
2022-10-09T04:48:07.768Z,1011.98
2022-10-09T04:49:07.750Z,1012.03
2022-10-09T04:50:07.730Z,1011.97
2022-10-09T04:51:07.720Z,1011.94
2022-10-09T04:52:07.710Z,1011.93
2022-10-09T04:53:07.690Z,1011.94
2022-10-09T04:54:07.697Z,1011.96
2022-10-09T04:55:07.667Z,1011.97
2022-10-09T04:56:07.662Z,1012.00
2022-10-09T04:57:07.648Z,1011.99
2022-10-09T04:58:07.648Z,1011.94
2022-10-09T04:59:07.617Z,1011.96
2022-10-09T05:00:07.611Z,1011.98
2022-10-09T05:01:07.675Z,1011.98
2022-10-09T05:02:07.613Z,1011.96
2022-10-09T05:03:07.577Z,1011.99
2022-10-09T05:04:07.574Z,1011.95
2022-10-09T05:05:07.540Z,1011.96
2022-10-09T05:06:07.544Z,1011.93
2022-10-09T05:07:07.519Z,1011.96
2022-10-09T05:08:07.521Z,1011.94
2022-10-09T05:09:07.490Z,1011.94
2022-10-09T05:10:07.489Z,1011.95
2022-10-09T05:11:07.470Z,1011.93
2022-10-09T05:12:07.465Z,1011.99
2022-10-09T05:13:07.470Z,1011.98
2022-10-09T05:14:07.446Z,1011.98
2022-10-09T05:15:07.413Z,1011.96
2022-10-09T05:16:07.444Z,1011.95
2022-10-09T05:17:15.211Z,1011.94
2022-10-09T05:18:08.382Z,1011.99
2022-10-09T05:19:07.357Z,1011.96
2022-10-09T05:20:07.355Z,1011.99
2022-10-09T05:21:07.333Z,1012.00
2022-10-09T05:22:07.325Z,1011.96
2022-10-09T05:23:07.311Z,1011.95
2022-10-09T05:24:10.394Z,1011.97
2022-10-09T05:25:07.271Z,1012.03
2022-10-09T05:26:07.282Z,1011.97
2022-10-09T05:27:07.272Z,1012.06
2022-10-09T05:28:07.289Z,1012.08
2022-10-09T05:29:07.221Z,1012.01
2022-10-09T05:30:07.212Z,1012.01
2022-10-09T05:31:07.210Z,1011.97
2022-10-09T05:32:07.213Z,1012.04
2022-10-09T05:33:07.194Z,1012.05
2022-10-09T05:34:07.186Z,1012.08
2022-10-09T05:35:07.154Z,1012.12
2022-10-09T05:36:07.141Z,1012.15
2022-10-09T05:37:07.235Z,1012.18
2022-10-09T05:38:07.120Z,1012.17
2022-10-09T05:39:07.101Z,1012.18
2022-10-09T05:40:07.081Z,1012.18
2022-10-09T05:41:07.079Z,1012.19
2022-10-09T05:42:07.067Z,1012.17
2022-10-09T05:43:07.060Z,1012.18
2022-10-09T05:44:07.031Z,1012.19
2022-10-09T05:45:07.018Z,1012.21
2022-10-09T05:46:07.096Z,1012.23
2022-10-09T05:47:07.000Z,1012.15
2022-10-09T05:48:07.001Z,1012.23
2022-10-09T05:49:06.967Z,1012.24
2022-10-09T05:50:06.956Z,1012.19
2022-10-09T05:51:06.945Z,1012.24
2022-10-09T05:52:06.938Z,1012.22
2022-10-09T05:53:06.939Z,1012.23
2022-10-09T05:54:06.907Z,1012.22
2022-10-09T05:55:06.908Z,1012.25
2022-10-09T05:56:06.887Z,1012.25
2022-10-09T05:57:06.928Z,1012.23
2022-10-09T05:58:06.867Z,1012.25
2022-10-09T05:59:06.862Z,1012.23
2022-10-09T06:00:06.842Z,1012.30
2022-10-09T06:01:06.845Z,1012.31
2022-10-09T06:02:06.853Z,1012.26
2022-10-09T06:03:06.810Z,1012.33
2022-10-09T06:04:06.776Z,1012.30
2022-10-09T06:05:06.764Z,1012.35
2022-10-09T06:06:06.756Z,1012.32
2022-10-09T06:07:06.749Z,1012.26
2022-10-09T06:08:06.754Z,1012.29
2022-10-09T06:09:06.720Z,1012.29
2022-10-09T06:10:06.694Z,1012.25
2022-10-09T06:11:06.692Z,1012.26
2022-10-09T06:12:06.681Z,1012.26
2022-10-09T06:13:06.679Z,1012.27
2022-10-09T06:14:06.643Z,1012.27
2022-10-09T06:15:06.652Z,1012.26
2022-10-09T06:16:06.613Z,1012.28
2022-10-09T06:17:06.690Z,1012.30
2022-10-09T06:18:06.604Z,1012.27
2022-10-09T06:19:06.583Z,1012.29
2022-10-09T06:20:06.562Z,1012.32
2022-10-09T06:21:06.551Z,1012.31
2022-10-09T06:22:06.538Z,1012.34
2022-10-09T06:23:06.539Z,1012.31
2022-10-09T06:24:06.514Z,1012.33
2022-10-09T06:25:06.501Z,1012.36
2022-10-09T06:26:06.481Z,1012.37
2022-10-09T06:27:06.479Z,1012.36
2022-10-09T06:28:06.488Z,1012.35
2022-10-09T06:29:06.445Z,1012.33
2022-10-09T06:30:06.428Z,1012.31
2022-10-09T06:31:06.493Z,1012.30
2022-10-09T06:32:06.408Z,1012.36
2022-10-09T06:33:06.403Z,1012.29
2022-10-09T06:34:06.381Z,1012.36
2022-10-09T06:35:06.385Z,1012.32
2022-10-09T06:36:10.182Z,1012.34
2022-10-09T06:37:06.337Z,1012.38
2022-10-09T06:38:06.340Z,1012.38
2022-10-09T06:39:06.317Z,1012.46
2022-10-09T06:40:06.324Z,1012.40
2022-10-09T06:41:06.301Z,1012.43
2022-10-09T06:42:06.279Z,1012.41
2022-10-09T06:43:06.447Z,1012.44
2022-10-09T06:44:06.274Z,1012.42
2022-10-09T06:45:06.271Z,1012.43
2022-10-09T06:46:06.254Z,1012.47
2022-10-09T06:47:06.207Z,1012.47
2022-10-09T06:48:06.204Z,1012.48
2022-10-09T06:49:06.184Z,1012.48
2022-10-09T06:50:06.167Z,1012.48
2022-10-09T06:51:06.157Z,1012.43
2022-10-09T06:52:06.150Z,1012.47
2022-10-09T06:53:06.149Z,1012.49
2022-10-09T06:54:06.119Z,1012.49
2022-10-09T06:55:06.104Z,1012.50
2022-10-09T06:56:06.087Z,1012.50
2022-10-09T06:57:06.074Z,1012.53
2022-10-09T06:58:06.064Z,1012.56
2022-10-09T06:59:06.065Z,1012.50
2022-10-09T07:00:06.038Z,1012.53
2022-10-09T07:01:06.070Z,1012.54
2022-10-09T07:02:06.083Z,1012.59
2022-10-09T07:03:06.111Z,1012.58
2022-10-09T07:04:05.983Z,1012.58
2022-10-09T07:05:05.984Z,1012.56
2022-10-09T07:06:05.954Z,1012.59
2022-10-09T07:07:05.942Z,1012.55
2022-10-09T07:08:12.950Z,1012.59
2022-10-09T07:09:05.920Z,1012.55
2022-10-09T07:10:05.909Z,1012.60
2022-10-09T07:11:05.900Z,1012.66
2022-10-09T07:12:05.880Z,1012.63
2022-10-09T07:13:05.889Z,1012.58
2022-10-09T07:14:05.865Z,1012.56
2022-10-09T07:15:05.846Z,1012.57
2022-10-09T07:16:05.851Z,1012.60
2022-10-09T07:17:05.820Z,1012.61
2022-10-09T07:18:05.815Z,1012.64
2022-10-09T07:19:05.792Z,1012.56
2022-10-09T07:20:05.766Z,1012.63
2022-10-09T07:21:05.767Z,1012.61
2022-10-09T07:22:05.747Z,1012.63
2022-10-09T07:23:05.808Z,1012.65
2022-10-09T07:24:05.732Z,1012.59
2022-10-09T07:25:05.708Z,1012.60
2022-10-09T07:26:05.705Z,1012.60
2022-10-09T07:27:05.692Z,1012.55
2022-10-09T07:28:05.720Z,1012.57
2022-10-09T07:29:05.657Z,1012.54
2022-10-09T07:30:05.657Z,1012.51
2022-10-09T07:31:05.734Z,1012.58
2022-10-09T07:32:10.202Z,1012.53
2022-10-09T07:33:06.615Z,1012.59
2022-10-09T07:34:05.603Z,1012.59
2022-10-09T07:35:05.584Z,1012.56
2022-10-09T07:36:05.558Z,1012.59
2022-10-09T07:37:05.561Z,1012.55
2022-10-09T07:38:05.548Z,1012.57
2022-10-09T07:39:05.527Z,1012.55
2022-10-09T07:40:05.521Z,1012.51
2022-10-09T07:41:05.496Z,1012.55
2022-10-09T07:42:05.500Z,1012.55
2022-10-09T07:43:05.484Z,1012.54
2022-10-09T07:44:05.460Z,1012.52
2022-10-09T07:45:05.466Z,1012.53
2022-10-09T07:46:05.471Z,1012.48
2022-10-09T07:47:05.438Z,1012.54
2022-10-09T07:48:05.419Z,1012.51
2022-10-09T07:49:05.420Z,1012.51
2022-10-09T07:50:05.375Z,1012.48
2022-10-09T07:51:05.372Z,1012.50
2022-10-09T07:52:05.337Z,1012.47
2022-10-09T07:53:05.348Z,1012.49
2022-10-09T07:54:05.316Z,1012.56
2022-10-09T07:55:05.306Z,1012.55
2022-10-09T07:56:05.298Z,1012.56
2022-10-09T07:57:05.295Z,1012.54
2022-10-09T07:58:05.276Z,1012.53
2022-10-09T07:59:05.254Z,1012.50
2022-10-09T08:00:05.239Z,1012.49
2022-10-09T08:01:05.240Z,1012.48
2022-10-09T08:02:05.348Z,1012.47
2022-10-09T08:03:05.251Z,1012.49
2022-10-09T08:04:05.189Z,1012.50
2022-10-09T08:05:05.180Z,1012.51
2022-10-09T08:06:05.157Z,1012.50
2022-10-09T08:07:05.157Z,1012.50
2022-10-09T08:08:05.147Z,1012.53
2022-10-09T08:09:05.136Z,1012.50
2022-10-09T08:10:05.110Z,1012.49
2022-10-09T08:11:05.087Z,1012.44
2022-10-09T08:12:05.089Z,1012.46
2022-10-09T08:13:05.087Z,1012.44
2022-10-09T08:14:05.060Z,1012.45
2022-10-09T08:15:05.040Z,1012.42
2022-10-09T08:16:05.080Z,1012.46
2022-10-09T08:17:05.020Z,1012.47
2022-10-09T08:18:05.020Z,1012.46
2022-10-09T08:19:04.991Z,1012.48
2022-10-09T08:20:04.976Z,1012.52
2022-10-09T08:21:04.962Z,1012.42
2022-10-09T08:22:04.939Z,1012.44
2022-10-09T08:23:04.978Z,1012.47
2022-10-09T08:24:04.921Z,1012.43
2022-10-09T08:25:04.924Z,1012.39
2022-10-09T08:26:04.887Z,1012.43
2022-10-09T08:27:04.889Z,1012.42
2022-10-09T08:28:04.989Z,1012.43
2022-10-09T08:29:04.860Z,1012.44
2022-10-09T08:30:04.837Z,1012.43
2022-10-09T08:31:04.971Z,1012.42
2022-10-09T08:32:04.812Z,1012.44
2022-10-09T08:33:04.822Z,1012.45
2022-10-09T08:34:04.779Z,1012.43
2022-10-09T08:35:04.772Z,1012.43
2022-10-09T08:36:04.751Z,1012.44
2022-10-09T08:37:04.754Z,1012.45
2022-10-09T08:38:04.749Z,1012.50
2022-10-09T08:39:04.722Z,1012.42
2022-10-09T08:40:04.700Z,1012.43
2022-10-09T08:41:04.705Z,1012.47
2022-10-09T08:42:04.682Z,1012.42
2022-10-09T08:43:04.684Z,1012.46
2022-10-09T08:44:04.654Z,1012.44
2022-10-09T08:45:04.643Z,1012.44
2022-10-09T08:46:04.656Z,1012.46
2022-10-09T08:47:04.623Z,1012.42
2022-10-09T08:48:04.623Z,1012.42
2022-10-09T08:49:04.605Z,1012.42
2022-10-09T08:50:04.583Z,1012.47
2022-10-09T08:51:04.575Z,1012.45
2022-10-09T08:52:04.543Z,1012.45
2022-10-09T08:53:04.560Z,1012.47
2022-10-09T08:54:04.556Z,1012.45
2022-10-09T08:55:04.514Z,1012.47
2022-10-09T08:56:04.493Z,1012.48
2022-10-09T08:57:04.472Z,1012.48
2022-10-09T08:58:04.484Z,1012.51
2022-10-09T08:59:04.461Z,1012.51
2022-10-09T09:00:04.489Z,1012.53
2022-10-09T09:01:04.434Z,1012.51
2022-10-09T09:02:04.456Z,1012.50
2022-10-09T09:03:04.479Z,1012.52
2022-10-09T09:04:04.390Z,1012.49
2022-10-09T09:05:04.383Z,1012.49
2022-10-09T09:06:04.355Z,1012.52
2022-10-09T09:07:04.355Z,1012.51
2022-10-09T09:08:04.343Z,1012.55
2022-10-09T09:09:04.359Z,1012.52
2022-10-09T09:10:04.325Z,1012.48
2022-10-09T09:11:04.309Z,1012.42
2022-10-09T09:12:04.313Z,1012.46
2022-10-09T09:13:04.285Z,1012.49
2022-10-09T09:14:04.265Z,1012.47
2022-10-09T09:15:04.247Z,1012.43
2022-10-09T09:16:04.314Z,1012.43
2022-10-09T09:17:04.235Z,1012.41
2022-10-09T09:18:04.210Z,1012.41
2022-10-09T09:19:04.192Z,1012.44
2022-10-09T09:20:04.190Z,1012.38
2022-10-09T09:21:04.175Z,1012.44
2022-10-09T09:22:04.167Z,1012.41
2022-10-09T09:23:04.146Z,1012.38
2022-10-09T09:24:04.125Z,1012.38
2022-10-09T09:25:04.125Z,1012.35
2022-10-09T09:26:04.105Z,1012.41
2022-10-09T09:27:04.106Z,1012.41
2022-10-09T09:28:05.962Z,1012.36
2022-10-09T09:29:04.068Z,1012.40
2022-10-09T09:30:04.053Z,1012.39
2022-10-09T09:31:04.095Z,1012.34
2022-10-09T09:32:04.037Z,1012.29
2022-10-09T09:33:04.019Z,1012.30
2022-10-09T09:34:03.998Z,1012.28
2022-10-09T09:35:03.999Z,1012.30
2022-10-09T09:36:03.969Z,1012.29
2022-10-09T09:37:03.967Z,1012.31
2022-10-09T09:38:03.937Z,1012.29
2022-10-09T09:41:04.902Z,1012.17
2022-10-09T09:42:03.913Z,1012.19
2022-10-09T09:43:10.880Z,1012.19
2022-10-09T09:44:03.863Z,1012.17
2022-10-09T09:45:03.858Z,1012.18
2022-10-09T09:46:03.838Z,1012.13
2022-10-09T09:47:03.863Z,1012.17
2022-10-09T09:48:03.851Z,1012.15
2022-10-09T09:49:08.544Z,1012.11
2022-10-09T09:50:04.793Z,1012.10
2022-10-09T09:51:27.296Z,1012.09
2022-10-09T09:52:04.762Z,1012.10
2022-10-09T09:53:03.758Z,1012.07
2022-10-09T09:54:03.742Z,1012.09
2022-10-09T09:55:03.713Z,1012.04
2022-10-09T09:56:03.743Z,1012.03
2022-10-09T09:57:21.946Z,1012.02
2022-10-09T09:58:04.687Z,1011.99
2022-10-09T09:59:03.662Z,1011.99
2022-10-09T10:00:03.679Z,1012.05
2022-10-09T10:01:03.722Z,1012.04
2022-10-09T10:02:03.692Z,1012.01
2022-10-09T10:03:03.606Z,1011.98
2022-10-09T10:04:03.621Z,1011.96
2022-10-09T10:05:03.584Z,1011.94
2022-10-09T10:06:03.595Z,1011.92
2022-10-09T10:07:03.556Z,1011.92
2022-10-09T10:08:03.555Z,1011.96
2022-10-09T10:09:03.532Z,1011.92
2022-10-09T10:10:03.525Z,1011.97
2022-10-09T10:11:03.513Z,1011.93
2022-10-09T10:12:03.497Z,1011.85
2022-10-09T10:13:03.475Z,1011.89
2022-10-09T10:14:03.477Z,1011.87
2022-10-09T10:15:03.454Z,1011.89
2022-10-09T10:16:03.538Z,1011.83
2022-10-09T10:17:03.824Z,1011.82
2022-10-09T10:18:03.421Z,1011.79
2022-10-09T10:19:04.082Z,1011.83
2022-10-09T10:20:03.405Z,1011.80
2022-10-09T10:21:03.815Z,1011.76
2022-10-09T10:22:03.367Z,1011.76
2022-10-09T10:23:03.347Z,1011.71
2022-10-09T10:24:04.429Z,1011.70
2022-10-09T10:25:03.326Z,1011.73
2022-10-09T10:26:03.349Z,1011.75
2022-10-09T10:27:03.298Z,1011.70
2022-10-09T10:28:03.334Z,1011.66
2022-10-09T10:29:03.263Z,1011.62
2022-10-09T10:30:03.266Z,1011.61
2022-10-09T10:31:03.342Z,1011.59
2022-10-09T10:32:03.226Z,1011.60
2022-10-09T10:33:03.207Z,1011.59
2022-10-09T10:34:03.205Z,1011.52
2022-10-09T10:35:03.186Z,1011.52
2022-10-09T10:36:03.193Z,1011.53
2022-10-09T10:37:03.550Z,1011.52
2022-10-09T10:38:03.148Z,1011.49
2022-10-09T10:39:03.127Z,1011.48
2022-10-09T10:40:03.149Z,1011.50
2022-10-09T10:41:03.117Z,1011.50
2022-10-09T10:42:03.088Z,1011.53
2022-10-09T10:43:03.090Z,1011.45
2022-10-09T10:44:03.070Z,1011.46
2022-10-09T10:45:03.049Z,1011.46
2022-10-09T10:46:03.048Z,1011.47
2022-10-09T10:47:03.028Z,1011.42
2022-10-09T10:48:03.027Z,1011.45
2022-10-09T10:49:03.001Z,1011.43
2022-10-09T10:50:03.002Z,1011.47
2022-10-09T10:51:02.970Z,1011.46
2022-10-09T10:52:02.979Z,1011.45
2022-10-09T10:53:02.949Z,1011.42
2022-10-09T10:54:02.929Z,1011.38
2022-10-09T10:55:02.920Z,1011.38
2022-10-09T10:56:05.412Z,1011.34
2022-10-09T10:57:02.888Z,1011.34
2022-10-09T10:58:02.880Z,1011.40
2022-10-09T10:59:02.860Z,1011.34
2022-10-09T11:00:02.860Z,1011.35
2022-10-09T11:01:02.871Z,1011.32
2022-10-09T11:02:02.828Z,1011.32
2022-10-09T11:03:02.880Z,1011.30
2022-10-09T11:04:02.808Z,1011.28
2022-10-09T11:05:02.805Z,1011.31
2022-10-09T11:06:02.782Z,1011.27
2022-10-09T11:07:02.772Z,1011.28
2022-10-09T11:08:02.754Z,1011.20
2022-10-09T11:09:02.742Z,1011.20
2022-10-09T11:10:02.736Z,1011.18
2022-10-09T11:11:02.715Z,1011.13
2022-10-09T11:12:02.728Z,1011.15
2022-10-09T11:13:02.972Z,1011.15
2022-10-09T11:14:02.673Z,1011.15
2022-10-09T11:15:02.663Z,1011.11
2022-10-09T11:16:02.722Z,1011.12
2022-10-09T11:17:02.635Z,1011.10
2022-10-09T11:18:02.623Z,1011.07
2022-10-09T11:19:02.602Z,1011.02
2022-10-09T11:20:02.595Z,1011.00
2022-10-09T11:21:02.565Z,1011.03
2022-10-09T11:22:02.572Z,1011.01
2022-10-09T11:23:02.555Z,1011.03
2022-10-09T11:24:02.533Z,1010.97
2022-10-09T11:25:02.535Z,1010.99
2022-10-09T11:26:02.503Z,1010.96
2022-10-09T11:27:03.787Z,1010.93
2022-10-09T11:28:02.642Z,1010.92
2022-10-09T11:29:02.470Z,1010.87
2022-10-09T11:30:02.472Z,1010.88
2022-10-09T11:31:02.435Z,1010.90
2022-10-09T11:32:02.536Z,1010.91
2022-10-09T11:33:02.426Z,1010.81
2022-10-09T11:34:02.410Z,1010.87
2022-10-09T11:35:02.395Z,1010.85
2022-10-09T11:36:02.374Z,1010.81
2022-10-09T11:37:02.364Z,1010.79
2022-10-09T11:38:02.373Z,1010.76
2022-10-09T11:39:02.325Z,1010.77
2022-10-09T11:40:02.335Z,1010.71
2022-10-09T11:41:05.099Z,1010.68
2022-10-09T11:42:02.294Z,1010.66
2022-10-09T11:43:02.282Z,1010.70
2022-10-09T11:44:02.267Z,1010.64
2022-10-09T11:45:02.254Z,1010.61
2022-10-09T11:46:02.292Z,1010.61
2022-10-09T11:47:02.888Z,1010.56
2022-10-09T11:48:02.215Z,1010.60
2022-10-09T11:49:02.197Z,1010.65
2022-10-09T11:50:02.216Z,1010.59
2022-10-09T11:51:02.165Z,1010.60
2022-10-09T11:52:02.169Z,1010.53
2022-10-09T11:53:02.137Z,1010.52
2022-10-09T11:54:02.135Z,1010.48
2022-10-09T11:55:02.127Z,1010.48
2022-10-09T11:56:02.105Z,1010.45
2022-10-09T11:57:05.152Z,1010.43
2022-10-09T11:58:02.084Z,1010.42
2022-10-09T11:59:02.054Z,1010.45
2022-10-09T12:00:02.063Z,1010.39
2022-10-09T12:01:02.156Z,1010.34
2022-10-09T12:02:02.056Z,1010.34
2022-10-09T12:03:02.030Z,1010.35
2022-10-09T12:04:02.009Z,1010.33
2022-10-09T12:05:01.995Z,1010.32
2022-10-09T12:06:01.987Z,1010.30
2022-10-09T12:07:01.977Z,1010.29